createdAt,value
2022-10-17T00:04:41.108Z,100.00
2022-10-17T00:09:44.744Z,100.00
2022-10-17T00:14:49.736Z,100.00
2022-10-17T00:19:53.174Z,100.00
2022-10-17T00:24:56.676Z,100.00
2022-10-17T00:30:02.540Z,100.00
2022-10-17T00:35:16.608Z,100.00
2022-10-17T00:40:20.903Z,100.00
2022-10-17T00:45:29.596Z,100.00
2022-10-17T00:50:33.524Z,100.00
2022-10-17T00:55:39.364Z,100.00
2022-10-17T01:06:28.444Z,100.00
2022-10-17T01:11:41.024Z,100.00
2022-10-17T01:16:52.230Z,100.00
2022-10-17T01:21:56.940Z,100.00
2022-10-17T01:27:19.675Z,100.00
2022-10-17T01:32:29.379Z,100.00
2022-10-17T01:37:35.331Z,100.00
2022-10-17T01:42:43.507Z,100.00
2022-10-17T01:47:51.039Z,100.00
2022-10-17T01:52:57.170Z,100.00
2022-10-17T01:58:04.095Z,100.00
2022-10-17T02:03:13.795Z,100.00
2022-10-17T02:08:27.119Z,100.00
2022-10-17T02:13:39.268Z,100.00
2022-10-17T02:18:59.791Z,100.00
2022-10-17T02:24:07.432Z,100.00
2022-10-17T02:29:16.710Z,100.00
2022-10-17T02:34:26.402Z,100.00
2022-10-17T02:39:30.446Z,100.00
2022-10-17T02:44:34.670Z,100.00
2022-10-17T02:49:42.013Z,100.00
2022-10-17T02:54:49.582Z,100.00
2022-10-17T02:59:53.452Z,100.00
2022-10-17T03:04:59.138Z,100.00
2022-10-17T03:10:03.482Z,100.00
2022-10-17T03:15:09.118Z,100.00
2022-10-17T03:20:15.698Z,100.00
2022-10-17T03:25:20.549Z,100.00
2022-10-17T03:30:26.402Z,100.00
2022-10-17T03:35:32.617Z,100.00
2022-10-17T03:40:37.415Z,100.00
2022-10-17T03:45:41.958Z,100.00
2022-10-17T03:50:47.423Z,100.00
2022-10-17T03:55:51.454Z,100.00
2022-10-17T04:00:55.886Z,100.00
2022-10-17T04:06:02.163Z,100.00
2022-10-17T04:11:09.297Z,100.00
2022-10-17T04:16:14.865Z,100.00
2022-10-17T04:21:29.916Z,100.00
2022-10-17T04:26:38.089Z,100.00
2022-10-17T04:31:42.254Z,100.00
2022-10-17T04:36:57.233Z,100.00
2022-10-17T04:42:02.885Z,100.00
2022-10-17T04:47:09.924Z,100.00
2022-10-17T04:52:17.607Z,100.00
2022-10-17T04:57:25.261Z,100.00
2022-10-17T05:02:38.196Z,100.00
2022-10-17T05:07:44.156Z,100.00
2022-10-17T05:12:51.629Z,100.00
2022-10-17T05:24:19.752Z,100.00
2022-10-17T05:29:36.862Z,100.00
2022-10-17T05:35:08.499Z,100.00
2022-10-17T05:40:42.719Z,100.00
2022-10-17T05:45:48.481Z,100.00
2022-10-17T05:50:59.956Z,100.00
2022-10-17T05:56:08.116Z,100.00
2022-10-17T06:06:51.524Z,100.00
2022-10-17T06:17:40.735Z,100.00
2022-10-17T06:22:44.399Z,100.00
2022-10-17T06:33:03.488Z,100.00
2022-10-17T06:38:07.427Z,100.00
2022-10-17T06:43:13.815Z,100.00
2022-10-17T06:48:45.340Z,100.00
2022-10-17T06:53:56.602Z,100.00
2022-10-17T06:59:10.459Z,100.00
2022-10-17T07:04:17.463Z,100.00
2022-10-17T07:09:21.188Z,100.00
2022-10-17T07:14:31.939Z,96.86
2022-10-17T07:19:37.363Z,95.63
2022-10-17T07:24:41.045Z,94.71
2022-10-17T07:29:52.190Z,94.01
2022-10-17T07:35:16.317Z,97.45
2022-10-17T07:40:20.061Z,92.16
2022-10-17T07:45:27.776Z,91.37
2022-10-17T07:50:33.259Z,91.00
2022-10-17T07:55:39.009Z,90.90
2022-10-17T08:00:43.062Z,90.09
2022-10-17T08:05:49.607Z,89.68
2022-10-17T08:10:54.369Z,88.77
2022-10-17T08:16:01.238Z,88.89
2022-10-17T08:21:08.638Z,87.99
2022-10-17T08:26:17.506Z,86.08
2022-10-17T08:31:47.871Z,85.67
2022-10-17T08:36:54.428Z,86.45
2022-10-17T08:42:10.459Z,85.46
2022-10-17T08:53:10.760Z,85.38
2022-10-17T08:58:16.009Z,84.89
2022-10-17T09:03:32.949Z,84.65
2022-10-17T09:08:46.284Z,84.81
2022-10-17T09:13:59.056Z,82.66
2022-10-17T09:19:10.440Z,82.29
2022-10-17T09:24:19.120Z,81.93
2022-10-17T09:29:29.606Z,81.96
2022-10-17T09:35:32.449Z,82.62
2022-10-17T09:40:38.657Z,81.19
2022-10-17T09:45:50.228Z,80.51
2022-10-17T09:51:25.680Z,80.68
2022-10-17T10:04:20.295Z,79.60
2022-10-17T10:09:26.176Z,79.13
2022-10-17T10:14:34.516Z,77.22
2022-10-17T10:19:41.165Z,77.15
2022-10-17T10:24:45.076Z,75.71
2022-10-17T10:29:51.547Z,76.49
2022-10-17T10:34:59.247Z,76.69
2022-10-17T10:40:04.765Z,77.13
2022-10-17T10:45:35.972Z,73.93
2022-10-17T10:50:46.807Z,73.74
2022-10-17T10:55:52.784Z,73.60
2022-10-17T11:00:58.482Z,73.55
2022-10-17T11:06:07.812Z,71.45
2022-10-17T11:11:18.352Z,72.27
2022-10-17T11:16:31.048Z,72.44
2022-10-17T11:21:57.088Z,70.73
2022-10-17T11:27:02.548Z,69.31
2022-10-17T11:43:39.729Z,69.78
2022-10-17T11:48:50.148Z,68.82
2022-10-17T11:59:35.167Z,68.80
2022-10-17T12:10:35.618Z,66.27
2022-10-17T12:15:44.670Z,65.83
2022-10-17T12:20:57.298Z,66.72
2022-10-17T12:26:05.282Z,65.85
2022-10-17T12:31:13.695Z,67.19
2022-10-17T12:36:38.265Z,66.62
2022-10-17T12:41:55.476Z,67.37
2022-10-17T12:53:04.830Z,66.06
2022-10-17T12:58:14.831Z,66.26
2022-10-17T13:03:19.758Z,65.70
2022-10-17T13:08:26.816Z,69.28
2022-10-17T13:20:00.402Z,66.66
2022-10-17T13:40:49.066Z,66.78
2022-10-17T13:52:42.150Z,65.84
2022-10-17T13:57:45.647Z,66.56
2022-10-17T14:02:49.554Z,66.40
2022-10-17T14:08:11.422Z,66.52
2022-10-17T14:13:23.789Z,67.17
2022-10-17T14:18:34.834Z,67.85
2022-10-17T14:23:41.053Z,67.43
2022-10-17T14:28:46.297Z,68.19
2022-10-17T14:33:51.112Z,68.25
2022-10-17T14:38:56.212Z,67.55
2022-10-17T14:44:01.080Z,67.56
2022-10-17T14:49:07.532Z,68.31
2022-10-17T14:54:21.837Z,68.79
2022-10-17T14:59:52.053Z,68.82
2022-10-17T15:04:49.292Z,69.64
2022-10-17T15:09:54.998Z,70.75
2022-10-17T15:14:58.388Z,71.54
2022-10-17T15:20:01.739Z,72.03
2022-10-17T15:25:07.691Z,72.39
2022-10-17T15:30:21.631Z,72.62
2022-10-17T15:35:25.932Z,73.42
2022-10-17T15:40:31.115Z,74.40
2022-10-17T15:45:35.939Z,75.02
2022-10-17T15:50:39.381Z,75.27
2022-10-17T15:55:44.091Z,75.88
2022-10-17T16:00:47.734Z,76.73
2022-10-17T16:05:51.103Z,77.37
2022-10-17T16:10:55.973Z,77.99
2022-10-17T16:15:59.335Z,78.75
2022-10-17T16:21:02.648Z,79.33
2022-10-17T16:26:07.591Z,79.85
2022-10-17T16:31:21.131Z,80.34
2022-10-17T16:36:24.644Z,81.02
2022-10-17T16:41:31.214Z,81.21
2022-10-17T16:46:35.240Z,81.99
2022-10-17T16:51:38.760Z,82.16
2022-10-17T16:56:43.546Z,82.21
2022-10-17T17:01:48.953Z,82.59
2022-10-17T17:06:52.378Z,82.98
2022-10-17T17:11:57.166Z,82.64
2022-10-17T17:17:00.530Z,82.72
2022-10-17T17:22:03.941Z,82.95
2022-10-17T17:27:11.302Z,83.77
2022-10-17T17:32:16.914Z,84.24
2022-10-17T17:37:20.300Z,84.85
2022-10-17T17:42:25.116Z,85.07
2022-10-17T17:47:30.263Z,85.55
2022-10-17T17:52:33.974Z,85.74
2022-10-17T17:57:38.727Z,85.54
2022-10-17T18:02:44.363Z,86.10
2022-10-17T18:07:47.958Z,86.87
2022-10-17T18:13:17.326Z,87.11
2022-10-17T18:18:20.743Z,87.23
2022-10-17T18:23:24.550Z,86.83
2022-10-17T18:28:29.630Z,86.17
2022-10-17T18:33:33.102Z,85.36
2022-10-17T18:38:37.073Z,84.88
2022-10-17T18:43:43.441Z,84.35
2022-10-17T18:48:48.013Z,83.43
2022-10-17T18:53:52.967Z,82.91
2022-10-17T18:58:58.653Z,82.75
2022-10-17T19:04:02.033Z,82.66
2022-10-17T19:09:07.237Z,82.94
2022-10-17T19:14:14.146Z,82.60
2022-10-17T19:19:22.157Z,82.83
2022-10-17T19:24:28.824Z,82.95
2022-10-17T19:29:33.669Z,82.73
2022-10-17T19:34:37.264Z,82.62
2022-10-17T19:39:40.708Z,82.35
2022-10-17T19:52:16.730Z,82.13
2022-10-17T19:57:47.469Z,82.17
2022-10-17T20:02:50.913Z,82.16
2022-10-17T20:07:54.373Z,82.01
2022-10-17T20:13:47.846Z,82.02
2022-10-17T20:18:56.405Z,82.56
2022-10-17T20:24:05.977Z,82.73
2022-10-17T20:29:12.257Z,82.91
2022-10-17T20:34:22.621Z,83.00
2022-10-17T20:39:51.220Z,83.16
2022-10-17T20:45:00.499Z,83.50
2022-10-17T20:50:18.433Z,83.78
2022-10-17T20:55:22.524Z,83.78
2022-10-17T21:00:26.568Z,83.83
2022-10-17T23:01:48.911Z,83.37
2022-10-17T23:06:53.087Z,83.11
2022-10-17T23:11:57.622Z,82.65
2022-10-17T23:17:03.124Z,82.61
2022-10-17T23:22:08.930Z,81.93
2022-10-17T23:27:15.123Z,81.29
2022-10-17T23:32:23.855Z,81.32
2022-10-17T23:37:31.654Z,81.27
2022-10-17T23:42:37.584Z,81.09
2022-10-17T23:47:44.771Z,80.58
